Time;durP1;ratioP1;P1;durP2;ratioP2;P2;SDS_P1;SDS_P2;PMS_P1;PMS_P2;Temp;Humidity;BMP_temperature;BMP_pressure;BME280_temperature;BME280_humidity;BME280_pressure;Samples;Min_cycle;Max_cycle;Signal;HPM_P1;HPM_P2
2023/07/26 00:00:05;;;;;;;4.87;1.37;;;17.30;99.90;;;;;;5127452;27;20267;-76
2023/07/26 00:02:32;;;;;;;2.73;1.30;;;17.30;99.90;;;;;;5127312;27;20697;-79
2023/07/26 00:05:00;;;;;;;2.00;1.20;;;17.20;99.90;;;;;;5127856;27;20758;-80
2023/07/26 00:07:27;;;;;;;4.97;1.53;;;17.20;99.90;;;;;;5128246;27;20235;-80
2023/07/26 00:09:54;;;;;;;4.17;1.50;;;17.10;99.90;;;;;;5128575;27;20782;-80
2023/07/26 00:12:21;;;;;;;3.30;1.27;;;17.20;99.90;;;;;;5113176;27;20283;-80
2023/07/26 00:14:48;;;;;;;4.33;1.43;;;17.10;99.90;;;;;;5113155;27;20317;-79
2023/07/26 00:17:15;;;;;;;4.63;1.47;;;17.10;99.90;;;;;;5128089;27;20717;-80
2023/07/26 00:19:42;;;;;;;2.67;1.23;;;17.10;99.90;;;;;;5108190;28;20228;-79
2023/07/26 00:22:10;;;;;;;3.60;1.33;;;17.10;99.90;;;;;;5107681;28;20230;-80
2023/07/26 00:24:37;;;;;;;1.83;1.20;;;17.10;99.90;;;;;;5107941;28;20217;-80
2023/07/26 00:27:04;;;;;;;4.87;1.37;;;17.00;99.90;;;;;;5121562;27;20236;-80
2023/07/26 00:29:31;;;;;;;3.93;1.23;;;16.80;99.90;;;;;;5127882;27;20212;-79
2023/07/26 00:31:58;;;;;;;4.57;1.37;;;16.90;99.90;;;;;;5120192;27;20798;-80
2023/07/26 00:34:25;;;;;;;3.50;1.37;;;16.90;99.90;;;;;;5110740;27;20206;-79
2023/07/26 00:36:52;;;;;;;4.23;1.33;;;16.90;99.90;;;;;;5107171;28;20218;-80
2023/07/26 00:39:20;;;;;;;2.37;1.00;;;17.00;99.90;;;;;;5107301;28;20216;-80
2023/07/26 00:41:47;;;;;;;2.47;1.30;;;16.80;99.90;;;;;;5114476;27;20229;-79
2023/07/26 00:44:14;;;;;;;3.63;1.30;;;16.60;99.90;;;;;;5114581;27;20216;-79
2023/07/26 00:46:41;;;;;;;3.47;1.23;;;16.50;99.90;;;;;;5106945;28;20213;-79
2023/07/26 00:49:09;;;;;;;4.00;1.20;;;16.20;99.90;;;;;;5120150;27;20211;-79
2023/07/26 00:51:37;;;;;;;3.80;1.10;;;16.10;99.90;;;;;;5147910;27;21054;-79
2023/07/26 00:54:05;;;;;;;5.23;1.60;;;15.90;99.90;;;;;;5129456;27;20563;-79
2023/07/26 00:56:33;;;;;;;2.80;1.27;;;16.00;99.90;;;;;;5106211;28;20202;-79
2023/07/26 00:59:00;;;;;;;2.53;1.33;;;15.70;99.90;;;;;;5106255;28;21152;-77
2023/07/26 01:01:28;;;;;;;4.90;1.43;;;15.80;99.90;;;;;;5106414;28;20234;-77
2023/07/26 01:03:55;;;;;;;3.90;1.40;;;15.80;99.90;;;;;;5123271;27;20288;-78
2023/07/26 01:06:30;;;;;;;3.80;1.30;;;15.80;99.90;;;;;;5114408;27;20288;-77
2023/07/26 01:09:06;;;;;;;5.07;1.40;;;15.70;99.90;;;;;;5123680;27;20251;-77
2023/07/26 01:11:39;;;;;;;4.77;1.60;;;15.50;99.90;;;;;;5126774;27;20189;-77
2023/07/26 01:14:14;;;;;;;1.80;1.20;;;15.50;99.90;;;;;;5126582;27;20305;-78
2023/07/26 01:16:41;;;;;;;4.67;1.30;;;15.50;99.90;;;;;;5126828;27;20198;-77
2023/07/26 01:19:08;;;;;;;2.83;1.50;;;15.60;99.90;;;;;;5113268;27;20300;-77
2023/07/26 01:21:36;;;;;;;2.90;1.90;;;15.70;99.90;;;;;;5126997;27;20296;-80
2023/07/26 01:24:03;;;;;;;4.90;1.30;;;15.60;99.90;;;;;;5125461;27;20664;-80
2023/07/26 01:26:30;;;;;;;3.43;1.30;;;15.50;99.90;;;;;;5126351;27;20205;-80
2023/07/26 01:28:57;;;;;;;1.57;1.17;;;15.50;99.90;;;;;;5125862;27;20291;-80
2023/07/26 01:31:25;;;;;;;3.83;1.47;;;15.30;99.90;;;;;;5126233;27;20962;-78
2023/07/26 01:33:53;;;;;;;4.03;1.40;;;15.20;99.90;;;;;;5126071;27;20235;-78
2023/07/26 01:36:22;;;;;;;1.53;1.33;;;15.30;99.90;;;;;;5125880;27;20321;-78
2023/07/26 01:38:51;;;;;;;3.37;1.57;;;15.30;99.90;;;;;;5114873;27;20212;-78
2023/07/26 01:41:18;;;;;;;3.97;1.60;;;15.10;99.90;;;;;;5120290;27;20998;-78
2023/07/26 01:43:45;;;;;;;2.13;1.20;;;15.20;99.90;;;;;;5105677;28;20238;-79
2023/07/26 01:46:13;;;;;;;2.07;1.43;;;15.30;99.90;;;;;;5105630;28;20212;-78
2023/07/26 01:48:39;;;;;;;3.93;1.40;;;15.30;99.90;;;;;;5115280;28;20197;-78
2023/07/26 01:51:07;;;;;;;4.00;1.67;;;15.30;99.90;;;;;;5105442;28;20209;-78
2023/07/26 01:53:33;;;;;;;5.30;1.60;;;15.10;99.90;;;;;;5105599;28;20289;-78
2023/07/26 01:56:05;;;;;;;2.67;1.33;;;15.30;99.90;;;;;;5105414;28;20206;-79
2023/07/26 01:58:32;;;;;;;3.00;1.37;;;15.40;99.90;;;;;;5108135;28;20239;-78
2023/07/26 02:00:59;;;;;;;2.73;1.70;;;15.40;99.90;;;;;;5125903;28;20317;-78
2023/07/26 02:03:26;;;;;;;4.27;1.50;;;15.40;99.90;;;;;;5126025;28;20316;-78
2023/07/26 02:05:53;;;;;;;6.53;2.33;;;15.40;99.90;;;;;;5117316;28;20186;-79
2023/07/26 02:08:20;;;;;;;2.93;1.60;;;15.50;99.90;;;;;;5109266;28;20241;-78
2023/07/26 02:10:46;;;;;;;4.23;1.70;;;15.60;99.90;;;;;;5124376;27;20308;-78
2023/07/26 02:13:15;;;;;;;3.77;1.10;;;15.60;99.90;;;;;;5130651;27;20767;-78
2023/07/26 02:15:42;;;;;;;5.23;1.50;;;15.60;99.90;;;;;;5130356;27;20296;-80
2023/07/26 02:18:08;;;;;;;2.57;1.40;;;15.60;99.90;;;;;;5120020;27;20206;-75
2023/07/26 02:20:35;;;;;;;6.20;1.90;;;15.50;99.90;;;;;;5147016;27;20299;-77
2023/07/26 02:23:02;;;;;;;4.13;1.63;;;15.40;99.90;;;;;;5137892;27;20316;-77
2023/07/26 02:25:29;;;;;;;6.40;1.50;;;15.30;99.90;;;;;;5135012;27;20203;-77
2023/07/26 02:27:56;;;;;;;3.20;1.30;;;15.10;99.90;;;;;;5150162;27;20754;-70
2023/07/26 02:30:25;;;;;;;4.97;1.80;;;15.20;99.90;;;;;;5138385;27;20721;-80
2023/07/26 02:32:51;;;;;;;2.93;1.40;;;15.10;99.90;;;;;;5129961;27;20201;-83
2023/07/26 02:35:19;;;;;;;4.20;1.70;;;15.20;99.90;;;;;;5128061;27;20718;-80
2023/07/26 02:37:46;;;;;;;2.83;1.40;;;15.30;99.90;;;;;;5124750;27;20229;-81
2023/07/26 02:40:13;;;;;;;1.63;1.30;;;15.30;99.90;;;;;;5107237;28;20206;-80
2023/07/26 02:42:40;;;;;;;6.20;1.60;;;15.30;99.90;;;;;;5117550;27;20679;-80
2023/07/26 02:45:08;;;;;;;2.63;1.80;;;15.30;99.90;;;;;;5127855;27;20505;-80
2023/07/26 02:47:36;;;;;;;2.17;1.23;;;15.40;99.90;;;;;;5127625;27;20205;-80
2023/07/26 02:50:04;;;;;;;1.93;1.50;;;15.50;99.90;;;;;;5127306;27;20206;-81
2023/07/26 02:52:31;;;;;;;3.70;1.43;;;15.50;99.90;;;;;;5127715;27;20202;-81
2023/07/26 02:54:58;;;;;;;3.10;1.20;;;15.60;99.90;;;;;;5116759;27;20616;-81
2023/07/26 02:57:25;;;;;;;4.20;1.40;;;15.60;99.90;;;;;;5128027;27;20208;-80
2023/07/26 02:59:52;;;;;;;3.63;1.60;;;15.60;99.90;;;;;;5128148;27;20290;-79
2023/07/26 03:02:19;;;;;;;2.67;1.20;;;15.50;99.90;;;;;;5127349;27;20277;-80
2023/07/26 03:04:47;;;;;;;2.67;1.33;;;15.30;99.90;;;;;;5111933;27;20715;-82
2023/07/26 03:07:14;;;;;;;4.33;1.50;;;15.00;99.90;;;;;;5108162;27;20296;-80
2023/07/26 03:09:41;;;;;;;3.80;1.60;;;15.10;99.90;;;;;;5123812;27;20294;-82
2023/07/26 03:12:08;;;;;;;7.07;1.97;;;15.00;99.90;;;;;;5128718;27;20498;-81
2023/07/26 03:14:40;;;;;;;4.97;1.70;;;15.10;99.90;;;;;;5128656;27;20201;-80
2023/07/26 03:17:08;;;;;;;3.47;1.50;;;15.10;99.90;;;;;;5128959;27;20262;-81
2023/07/26 03:19:35;;;;;;;3.83;1.70;;;15.10;99.90;;;;;;5138805;27;20205;-80
2023/07/26 03:22:03;;;;;;;2.53;1.70;;;15.20;99.90;;;;;;5141728;27;20201;-80
2023/07/26 03:24:30;;;;;;;2.93;1.30;;;15.20;99.90;;;;;;5128661;27;20232;-81
2023/07/26 03:26:57;;;;;;;4.23;1.30;;;15.20;99.90;;;;;;5128498;27;20292;-80
2023/07/26 03:29:24;;;;;;;4.10;1.63;;;15.20;99.90;;;;;;5128214;27;20983;-80
2023/07/26 03:31:51;;;;;;;4.37;1.47;;;15.20;99.90;;;;;;5128675;27;20353;-80
2023/07/26 03:34:18;;;;;;;2.57;1.53;;;15.20;99.90;;;;;;5128350;27;20217;-80
2023/07/26 03:36:45;;;;;;;3.70;1.40;;;15.20;99.90;;;;;;5128840;27;20288;-80
2023/07/26 03:39:13;;;;;;;5.07;1.30;;;15.20;99.90;;;;;;5128618;27;20197;-80
2023/07/26 03:41:40;;;;;;;5.13;1.83;;;15.20;99.90;;;;;;5128193;27;20308;-80
2023/07/26 03:44:06;;;;;;;2.57;1.33;;;15.20;99.90;;;;;;5127600;27;20261;-80
2023/07/26 03:46:33;;;;;;;3.93;1.77;;;15.20;99.90;;;;;;5128194;27;20209;-80
2023/07/26 03:49:00;;;;;;;5.10;1.80;;;15.20;99.90;;;;;;5128268;27;20213;-81
2023/07/26 03:51:27;;;;;;;3.43;1.53;;;15.10;99.90;;;;;;5127983;27;20292;-81
2023/07/26 03:53:54;;;;;;;2.90;1.43;;;15.10;99.90;;;;;;5128074;27;20617;-80
2023/07/26 03:56:22;;;;;;;6.27;1.73;;;15.10;99.90;;;;;;5127965;27;20278;-81
2023/07/26 03:58:49;;;;;;;2.47;1.70;;;15.10;99.90;;;;;;5127846;27;20233;-80
2023/07/26 04:01:16;;;;;;;4.77;1.77;;;15.10;99.90;;;;;;5128236;27;20609;-80
2023/07/26 04:03:43;;;;;;;3.97;1.70;;;14.70;99.90;;;;;;5133778;27;20639;-80
2023/07/26 04:06:12;;;;;;;3.60;1.40;;;14.60;99.90;;;;;;5127845;27;20300;-80
2023/07/26 04:08:39;;;;;;;6.13;1.83;;;14.40;99.90;;;;;;5128031;27;20735;-80
2023/07/26 04:11:06;;;;;;;2.93;1.67;;;14.40;99.90;;;;;;5128050;27;20210;-80
2023/07/26 04:13:34;;;;;;;4.00;2.00;;;14.50;99.90;;;;;;5127939;27;20236;-80
2023/07/26 04:16:01;;;;;;;3.03;1.77;;;14.50;99.90;;;;;;5127916;27;20285;-80
2023/07/26 04:18:28;;;;;;;3.53;1.50;;;14.50;99.90;;;;;;5126939;27;20241;-81
2023/07/26 04:20:55;;;;;;;4.60;1.70;;;14.50;99.90;;;;;;5107069;28;20246;-80
2023/07/26 04:23:22;;;;;;;3.97;1.90;;;14.30;99.90;;;;;;5121932;27;20233;-80
2023/07/26 04:25:50;;;;;;;4.83;2.00;;;14.20;99.90;;;;;;5127481;27;20233;-80
2023/07/26 04:28:17;;;;;;;6.23;2.00;;;14.20;99.90;;;;;;5127203;27;20209;-80
2023/07/26 04:30:48;;;;;;;5.03;2.17;;;14.30;99.90;;;;;;5126707;27;20201;-80
2023/07/26 04:33:15;;;;;;;4.33;2.00;;;14.20;99.90;;;;;;5127687;27;20208;-81
2023/07/26 04:35:44;;;;;;;3.17;1.90;;;14.40;99.90;;;;;;5127893;27;20320;-81
2023/07/26 04:38:12;;;;;;;2.43;1.50;;;14.30;99.90;;;;;;5127014;27;20209;-80
2023/07/26 04:40:39;;;;;;;3.07;1.53;;;14.50;99.90;;;;;;5127392;27;20209;-81
2023/07/26 04:43:06;;;;;;;3.77;1.67;;;14.60;99.90;;;;;;5126927;27;20229;-81
2023/07/26 04:45:32;;;;;;;10.70;2.13;;;14.70;99.90;;;;;;5127197;27;20240;-81
2023/07/26 04:48:01;;;;;;;1.80;1.40;;;14.70;99.90;;;;;;5127337;27;20333;-80
2023/07/26 04:50:28;;;;;;;6.53;2.00;;;14.60;99.90;;;;;;5123986;27;20297;-81
2023/07/26 04:52:54;;;;;;;5.10;1.80;;;14.60;99.90;;;;;;5106926;28;20210;-81
2023/07/26 04:55:21;;;;;;;3.10;1.67;;;14.40;99.90;;;;;;5106750;28;20216;-80
2023/07/26 04:57:48;;;;;;;4.03;1.73;;;14.30;99.90;;;;;;5106521;28;20726;-81
2023/07/26 05:00:15;;;;;;;2.87;1.80;;;14.30;99.90;;;;;;5120677;27;20356;-80
2023/07/26 05:02:42;;;;;;;4.47;1.90;;;14.40;99.90;;;;;;5127732;27;20602;-80
2023/07/26 05:05:10;;;;;;;4.90;2.00;;;14.40;99.90;;;;;;5127170;27;20304;-80
2023/07/26 05:07:37;;;;;;;4.83;2.00;;;14.50;99.90;;;;;;5122814;27;20202;-80
2023/07/26 05:10:05;;;;;;;2.87;1.60;;;14.60;99.90;;;;;;5106418;28;20210;-80
2023/07/26 05:12:32;;;;;;;3.70;1.87;;;14.40;99.90;;;;;;5106872;28;20283;-80
2023/07/26 05:14:58;;;;;;;5.93;2.20;;;14.30;99.90;;;;;;5106101;28;20854;-79
2023/07/26 05:17:25;;;;;;;3.73;1.73;;;14.20;99.90;;;;;;5106889;28;20748;-80
2023/07/26 05:19:52;;;;;;;3.37;1.77;;;14.20;99.90;;;;;;5120960;27;20209;-80
2023/07/26 05:22:20;;;;;;;4.07;1.60;;;14.30;99.90;;;;;;5127228;27;20209;-79
2023/07/26 05:24:47;;;;;;;5.50;1.97;;;14.30;99.90;;;;;;5108444;27;20522;-80
2023/07/26 05:27:14;;;;;;;4.13;1.70;;;14.30;99.90;;;;;;5106210;28;20212;-80
2023/07/26 05:29:41;;;;;;;5.10;2.00;;;14.20;99.90;;;;;;5106179;28;20300;-81
2023/07/26 05:32:09;;;;;;;4.63;1.90;;;14.20;99.90;;;;;;5105705;28;20210;-81
2023/07/26 05:34:36;;;;;;;2.10;1.93;;;14.30;99.90;;;;;;5106023;28;20715;-80
2023/07/26 05:37:03;;;;;;;3.43;2.03;;;14.10;99.90;;;;;;5105502;28;20208;-80
2023/07/26 05:39:32;;;;;;;3.63;2.20;;;14.40;99.90;;;;;;5106155;28;20206;-79
2023/07/26 05:41:59;;;;;;;2.37;1.63;;;14.30;99.90;;;;;;5105448;28;20212;-81
2023/07/26 05:44:26;;;;;;;8.33;2.30;;;14.40;99.90;;;;;;5115950;27;20231;-80
2023/07/26 05:46:53;;;;;;;3.67;2.03;;;14.50;99.90;;;;;;5126393;28;20240;-80
2023/07/26 05:49:20;;;;;;;3.93;2.10;;;14.50;99.90;;;;;;5126606;28;20244;-80
2023/07/26 05:51:47;;;;;;;5.20;2.10;;;14.50;99.90;;;;;;5126500;28;20288;-80
2023/07/26 05:54:13;;;;;;;4.83;1.90;;;14.50;99.90;;;;;;5126404;28;20206;-80
2023/07/26 05:56:42;;;;;;;4.77;1.93;;;14.40;99.90;;;;;;5126346;28;20241;-82
2023/07/26 05:59:08;;;;;;;3.70;2.20;;;14.50;99.90;;;;;;5126042;28;20236;-79
2023/07/26 06:01:36;;;;;;;2.97;1.77;;;14.50;99.90;;;;;;5126499;28;20201;-80
2023/07/26 06:04:03;;;;;;;4.17;2.40;;;14.60;99.90;;;;;;5126010;28;20233;-80
2023/07/26 06:06:30;;;;;;;3.27;1.80;;;14.70;99.90;;;;;;5126474;28;20205;-81
2023/07/26 06:08:58;;;;;;;2.80;1.90;;;14.70;99.90;;;;;;5126438;28;20301;-80
2023/07/26 06:11:25;;;;;;;6.03;2.07;;;14.80;99.90;;;;;;5126579;27;20213;-80
2023/07/26 06:13:54;;;;;;;3.97;1.73;;;14.90;99.90;;;;;;5125434;28;20224;-80
2023/07/26 06:16:21;;;;;;;4.23;2.30;;;15.00;99.90;;;;;;5126114;28;20205;-80
2023/07/26 06:18:50;;;;;;;5.60;2.47;;;15.10;99.90;;;;;;5126012;27;20233;-80
2023/07/26 06:21:18;;;;;;;2.23;1.97;;;15.20;99.90;;;;;;5105987;28;20245;-80
2023/07/26 06:23:45;;;;;;;3.57;2.10;;;15.20;99.90;;;;;;5105618;28;20229;-79
2023/07/26 06:26:12;;;;;;;3.77;1.73;;;15.20;99.90;;;;;;5105603;28;20206;-80
2023/07/26 06:28:40;;;;;;;2.70;1.90;;;15.20;99.90;;;;;;5105462;28;20213;-80
2023/07/26 06:31:08;;;;;;;2.13;1.87;;;15.20;99.90;;;;;;5105827;28;20212;-79
2023/07/26 06:33:35;;;;;;;3.13;1.60;;;15.20;99.90;;;;;;5105690;28;20309;-80
2023/07/26 06:36:02;;;;;;;3.20;2.07;;;15.30;99.90;;;;;;5105371;28;20263;-80
2023/07/26 06:38:29;;;;;;;3.57;1.87;;;15.20;99.90;;;;;;5105809;28;20225;-80
2023/07/26 06:40:56;;;;;;;6.13;1.57;;;15.30;99.90;;;;;;5117969;28;20212;-80
2023/07/26 06:43:22;;;;;;;3.57;1.50;;;15.40;99.90;;;;;;5125733;28;20233;-80
2023/07/26 06:45:52;;;;;;;2.30;2.10;;;15.40;99.90;;;;;;5126198;28;20733;-80
2023/07/26 06:48:23;;;;;;;1.77;1.60;;;15.40;99.90;;;;;;5125737;28;20208;-80
2023/07/26 06:50:50;;;;;;;2.87;1.37;;;15.40;99.90;;;;;;5112988;27;20269;-80
2023/07/26 06:53:17;;;;;;;1.77;1.57;;;15.50;99.90;;;;;;5128814;27;20249;-81
2023/07/26 06:55:43;;;;;;;3.40;1.60;;;15.60;99.90;;;;;;5129706;27;20207;-80
2023/07/26 06:58:10;;;;;;;2.80;1.57;;;15.60;99.90;;;;;;5128945;27;20229;-80
2023/07/26 07:00:37;;;;;;;2.57;1.73;;;15.70;99.90;;;;;;5129366;27;20193;-79
2023/07/26 07:03:05;;;;;;;3.30;1.80;;;15.80;99.90;;;;;;5129825;27;20288;-80
2023/07/26 07:05:35;;;;;;;3.07;1.63;;;15.90;99.90;;;;;;5129535;27;20257;-79
2023/07/26 07:08:02;;;;;;;2.53;1.60;;;16.00;99.90;;;;;;5129566;27;20209;-80
2023/07/26 07:10:29;;;;;;;2.33;1.53;;;16.10;99.90;;;;;;5129112;27;20683;-80
2023/07/26 07:12:56;;;;;;;6.00;1.73;;;16.10;99.90;;;;;;5129007;27;20209;-80
2023/07/26 07:15:23;;;;;;;1.40;1.30;;;16.20;99.90;;;;;;5129020;27;20214;-80
2023/07/26 07:17:49;;;;;;;2.77;1.60;;;16.30;99.90;;;;;;5129089;27;20209;-79
2023/07/26 07:20:16;;;;;;;6.53;1.70;;;16.40;99.90;;;;;;5145234;27;20299;-80
2023/07/26 07:22:45;;;;;;;2.07;1.60;;;16.40;99.90;;;;;;5149868;27;20215;-80
2023/07/26 07:25:11;;;;;;;3.03;1.37;;;16.50;99.90;;;;;;5149045;27;20243;-80
2023/07/26 07:27:38;;;;;;;2.67;1.30;;;16.60;99.90;;;;;;5149390;27;20211;-80
2023/07/26 07:30:10;;;;;;;4.27;1.70;;;16.60;99.90;;;;;;5148891;27;20209;-80
2023/07/26 07:32:37;;;;;;;7.20;1.83;;;16.50;99.90;;;;;;5149803;27;20193;-80
2023/07/26 07:35:04;;;;;;;5.00;1.60;;;16.40;99.90;;;;;;5149354;27;20235;-80
2023/07/26 07:37:31;;;;;;;3.03;1.47;;;16.50;99.90;;;;;;5149801;27;20281;-81
2023/07/26 07:39:59;;;;;;;3.67;1.40;;;16.50;99.90;;;;;;5149456;27;20323;-80
2023/07/26 07:42:26;;;;;;;3.70;1.50;;;16.50;99.90;;;;;;5149404;27;20305;-79
2023/07/26 07:44:53;;;;;;;2.67;1.60;;;16.40;99.90;;;;;;5149206;27;20233;-80
2023/07/26 07:47:20;;;;;;;2.87;1.47;;;16.40;99.90;;;;;;5142698;27;20593;-80
2023/07/26 07:49:47;;;;;;;1.37;1.23;;;16.50;99.90;;;;;;5128149;27;20921;-80
2023/07/26 07:52:14;;;;;;;5.10;1.90;;;16.50;99.90;;;;;;5109334;27;20225;-80
2023/07/26 07:54:41;;;;;;;2.10;1.40;;;16.50;99.90;;;;;;5107569;28;20237;-80
2023/07/26 07:57:09;;;;;;;4.93;1.43;;;16.50;99.90;;;;;;5107485;28;20294;-80
2023/07/26 07:59:36;;;;;;;3.00;1.20;;;16.60;99.90;;;;;;5106868;28;20246;-80
2023/07/26 08:02:03;;;;;;;2.60;1.67;;;16.60;99.90;;;;;;5107231;28;20209;-80
2023/07/26 08:04:30;;;;;;;2.63;1.57;;;16.70;99.90;;;;;;5105880;28;20688;-79
2023/07/26 08:06:57;;;;;;;2.20;1.50;;;16.70;99.90;;;;;;5107213;28;20321;-80
2023/07/26 08:09:24;;;;;;;3.63;1.33;;;16.80;99.90;;;;;;5107141;28;20214;-80
2023/07/26 08:11:50;;;;;;;4.43;1.60;;;16.80;99.90;;;;;;5115640;27;20241;-80
2023/07/26 08:14:19;;;;;;;2.43;1.40;;;16.90;99.90;;;;;;5107167;28;20220;-80
2023/07/26 08:16:46;;;;;;;3.63;1.67;;;16.90;99.90;;;;;;5107722;28;20572;-80
2023/07/26 08:19:12;;;;;;;1.40;1.30;;;16.90;99.90;;;;;;5107331;28;20310;-80
2023/07/26 08:21:39;;;;;;;2.60;1.53;;;16.90;99.90;;;;;;5107546;28;20504;-80
2023/07/26 08:24:06;;;;;;;2.47;1.40;;;17.00;99.90;;;;;;5107180;28;20340;-80
2023/07/26 08:26:33;;;;;;;3.20;1.50;;;17.20;99.90;;;;;;5107225;28;20236;-80
2023/07/26 08:29:00;;;;;;;2.30;1.73;;;17.30;99.90;;;;;;5106557;28;20301;-80
2023/07/26 08:31:28;;;;;;;3.27;1.50;;;17.30;99.90;;;;;;5107340;28;20237;-80
2023/07/26 08:33:55;;;;;;;3.47;1.33;;;17.40;99.90;;;;;;5106845;28;20713;-80
2023/07/26 08:36:22;;;;;;;3.70;1.50;;;17.40;99.90;;;;;;5111894;27;20198;-80
2023/07/26 08:38:49;;;;;;;1.70;1.30;;;17.50;99.90;;;;;;5127256;27;20219;-79
2023/07/26 08:41:16;;;;;;;1.60;1.50;;;17.50;99.90;;;;;;5126898;27;20300;-80
2023/07/26 08:43:45;;;;;;;6.97;1.57;;;17.60;99.90;;;;;;5125085;27;20292;-80
2023/07/26 08:46:13;;;;;;;3.10;1.50;;;17.70;99.90;;;;;;5106213;28;20604;-80
2023/07/26 08:48:45;;;;;;;2.10;1.90;;;17.80;99.90;;;;;;5109221;27;20237;-79
2023/07/26 08:51:12;;;;;;;2.73;1.60;;;17.60;99.90;;;;;;5117450;27;20205;-79
2023/07/26 08:53:43;;;;;;;5.17;1.50;;;17.80;99.90;;;;;;5106393;28;20212;-80
2023/07/26 08:56:11;;;;;;;2.63;1.80;;;17.70;99.90;;;;;;5106654;28;20209;-80
2023/07/26 08:58:37;;;;;;;2.37;1.90;;;17.70;99.90;;;;;;5106174;28;20291;-79
2023/07/26 09:01:06;;;;;;;2.13;1.37;;;17.80;99.90;;;;;;5146957;27;20719;-80
2023/07/26 09:03:33;;;;;;;3.87;1.37;;;17.60;99.90;;;;;;5148563;27;20296;-80
2023/07/26 09:06:05;;;;;;;1.70;1.40;;;17.70;99.90;;;;;;5147652;27;20229;-79
2023/07/26 09:08:32;;;;;;;2.17;1.40;;;17.90;99.90;;;;;;5139553;27;20213;-80
2023/07/26 09:11:01;;;;;;;1.80;1.20;;;18.00;99.90;;;;;;5126785;27;20205;-80
2023/07/26 09:13:28;;;;;;;4.37;1.30;;;18.10;99.90;;;;;;5126534;27;20705;-79
2023/07/26 09:15:55;;;;;;;1.97;1.20;;;18.10;99.90;;;;;;5126398;27;20210;-79
2023/07/26 09:18:22;;;;;;;1.60;1.30;;;18.10;99.90;;;;;;5127108;27;20206;-80
2023/07/26 09:21:00;;;;;;;4.87;1.20;;;18.20;99.90;;;;;;5127048;27;20209;-80
2023/07/26 09:23:28;;;;;;;1.47;1.00;;;18.20;99.90;;;;;;5127233;27;20197;-80
2023/07/26 09:25:55;;;;;;;1.43;1.40;;;18.20;99.90;;;;;;5126828;27;20233;-80
2023/07/26 09:28:24;;;;;;;1.23;1.10;;;18.10;99.90;;;;;;5126526;27;20209;-80
2023/07/26 09:30:51;;;;;;;2.10;1.40;;;18.30;99.90;;;;;;5127067;27;20232;-80
2023/07/26 09:33:18;;;;;;;1.30;1.20;;;18.20;99.90;;;;;;5126561;27;20723;-79
2023/07/26 09:35:47;;;;;;;5.40;1.40;;;18.20;99.90;;;;;;5126515;27;20208;-80
2023/07/26 09:38:15;;;;;;;1.63;1.10;;;18.30;99.90;;;;;;5126549;27;20292;-80
2023/07/26 09:40:43;;;;;;;2.50;1.37;;;18.50;99.90;;;;;;5126762;27;20278;-80
2023/07/26 09:43:10;;;;;;;1.50;1.40;;;18.70;99.90;;;;;;5126249;27;20291;-80
2023/07/26 09:45:38;;;;;;;1.83;1.60;;;18.60;99.90;;;;;;5126335;27;20229;-80
2023/07/26 09:48:06;;;;;;;1.40;1.03;;;18.40;99.90;;;;;;5126647;27;20201;-80
2023/07/26 09:50:35;;;;;;;2.20;1.37;;;18.20;99.90;;;;;;5122056;27;20198;-79
2023/07/26 09:53:04;;;;;;;5.53;1.20;;;18.20;99.90;;;;;;5106105;28;20281;-79
2023/07/26 09:55:31;;;;;;;1.13;1.03;;;18.50;99.90;;;;;;5105875;28;20301;-80
2023/07/26 09:58:00;;;;;;;2.73;1.23;;;18.60;99.90;;;;;;5105212;28;20202;-80
2023/07/26 10:00:29;;;;;;;1.53;1.20;;;18.80;99.90;;;;;;5105098;28;20237;-80
2023/07/26 10:02:58;;;;;;;1.57;1.47;;;18.90;99.90;;;;;;5105681;28;20236;-80
2023/07/26 10:05:26;;;;;;;2.60;1.20;;;18.90;99.90;;;;;;5119110;27;20530;-80
2023/07/26 10:07:53;;;;;;;1.50;1.07;;;18.90;99.90;;;;;;5126036;28;20284;-80
2023/07/26 10:10:22;;;;;;;2.57;1.53;;;19.00;99.90;;;;;;5126230;28;20201;-80
2023/07/26 10:12:53;;;;;;;1.57;1.27;;;19.10;99.90;;;;;;5126597;28;20225;-81
2023/07/26 10:15:22;;;;;;;1.40;1.20;;;19.10;99.90;;;;;;5125845;28;20189;-80
2023/07/26 10:17:52;;;;;;;1.73;1.40;;;19.10;99.90;;;;;;5126423;28;20215;-80
2023/07/26 10:20:20;;;;;;;1.80;1.17;;;18.90;99.90;;;;;;5126261;28;20312;-80
2023/07/26 10:22:48;;;;;;;1.53;1.30;;;18.90;99.90;;;;;;5126519;28;20205;-79
2023/07/26 10:25:14;;;;;;;2.23;1.50;;;19.00;99.90;;;;;;5125492;28;20272;-80
2023/07/26 10:27:44;;;;;;;2.07;1.30;;;19.20;99.90;;;;;;5126078;27;20693;-79
2023/07/26 10:30:12;;;;;;;1.60;1.50;;;19.30;99.90;;;;;;5129893;27;20209;-80
2023/07/26 10:32:48;;;;;;;1.83;1.50;;;19.50;99.90;;;;;;5130710;27;20201;-80
2023/07/26 10:35:27;;;;;;;2.70;1.60;;;19.70;99.90;;;;;;5130514;27;20197;-80
2023/07/26 10:37:57;;;;;;;1.57;1.37;;;19.90;99.90;;;;;;5109626;28;20209;-81
2023/07/26 10:40:32;;;;;;;1.60;1.30;;;19.90;99.90;;;;;;5109539;28;20875;-80
2023/07/26 10:42:59;;;;;;;1.50;1.40;;;19.90;99.90;;;;;;5109294;28;20284;-79
2023/07/26 10:45:40;;;;;;;2.00;1.50;;;20.00;99.90;;;;;;5109173;28;20312;-80
2023/07/26 10:48:14;;;;;;;2.57;2.37;;;20.00;99.90;;;;;;5108851;28;20603;-80
2023/07/26 10:50:41;;;;;;;2.63;1.70;;;19.90;99.90;;;;;;5142334;27;20198;-79
2023/07/26 10:53:27;;;;;;;3.20;1.43;;;20.10;99.90;;;;;;5113081;27;20297;-81
2023/07/26 10:56:07;;;;;;;4.37;1.63;;;20.20;99.90;;;;;;5108898;28;20205;-79
2023/07/26 10:58:33;;;;;;;1.83;1.57;;;20.30;99.90;;;;;;5108713;28;20737;-79
2023/07/26 11:01:04;;;;;;;3.23;1.70;;;20.30;99.90;;;;;;5109451;28;20255;-80
2023/07/26 11:03:32;;;;;;;1.57;1.33;;;20.20;99.90;;;;;;5114131;27;20284;-80
2023/07/26 11:05:59;;;;;;;2.93;1.70;;;20.10;99.90;;;;;;5120579;27;20233;-80
2023/07/26 11:08:42;;;;;;;2.70;1.90;;;19.80;99.90;;;;;;5129504;27;20651;-79
2023/07/26 11:11:09;;;;;;;3.60;2.30;;;19.10;99.90;;;;;;5129174;27;20212;-80
2023/07/26 11:13:36;;;;;;;2.90;2.17;;;18.20;99.90;;;;;;5128933;27;20204;-79
2023/07/26 11:16:03;;;;;;;4.60;2.17;;;17.80;99.90;;;;;;5128729;27;20228;-80
2023/07/26 11:18:38;;;;;;;2.37;1.87;;;17.60;99.90;;;;;;5128938;27;20201;-79
2023/07/26 11:21:05;;;;;;;3.23;1.70;;;17.60;99.90;;;;;;5128891;27;20201;-79
2023/07/26 11:23:32;;;;;;;6.53;2.20;;;17.90;99.90;;;;;;5128846;27;20536;-79
2023/07/26 11:26:01;;;;;;;5.43;2.20;;;18.30;99.90;;;;;;5128407;27;20240;-79
2023/07/26 11:28:31;;;;;;;3.13;1.93;;;18.90;99.90;;;;;;5128258;27;20748;-79
2023/07/26 11:30:59;;;;;;;3.23;1.80;;;19.20;99.90;;;;;;5128341;27;20220;-79
2023/07/26 11:33:27;;;;;;;1.80;1.63;;;19.30;99.90;;;;;;5125626;27;20314;-79
2023/07/26 11:35:56;;;;;;;1.67;1.50;;;19.30;99.90;;;;;;5128560;27;20205;-80
2023/07/26 11:38:23;;;;;;;2.00;1.63;;;19.30;99.90;;;;;;5128745;27;20225;-79
2023/07/26 11:40:52;;;;;;;2.87;1.70;;;19.40;99.90;;;;;;5128406;27;20212;-79
2023/07/26 11:43:20;;;;;;;2.13;2.03;;;19.30;99.90;;;;;;5128371;27;20233;-79
2023/07/26 11:45:47;;;;;;;2.20;2.00;;;19.20;99.90;;;;;;5128786;27;20256;-79
2023/07/26 11:48:14;;;;;;;5.10;1.80;;;19.20;99.90;;;;;;5122332;27;20213;-79
2023/07/26 11:50:42;;;;;;;1.77;1.63;;;19.30;99.90;;;;;;5112943;27;20316;-79
2023/07/26 11:53:12;;;;;;;4.20;2.00;;;19.40;99.90;;;;;;5128768;27;20207;-80
2023/07/26 11:55:41;;;;;;;1.50;1.40;;;19.80;99.90;;;;;;5128574;27;20199;-79
2023/07/26 11:58:11;;;;;;;3.33;1.30;;;20.10;99.90;;;;;;5112837;27;20210;-80
2023/07/26 12:00:41;;;;;;;1.50;1.40;;;20.50;99.90;;;;;;5107373;28;20576;-82
2023/07/26 12:03:08;;;;;;;1.53;1.40;;;20.90;99.90;;;;;;5107904;28;20281;-80
2023/07/26 12:05:35;;;;;;;3.00;1.40;;;20.80;99.90;;;;;;5107342;28;20699;-80
2023/07/26 12:08:07;;;;;;;3.03;1.40;;;20.70;99.90;;;;;;5119667;27;20288;-80
2023/07/26 12:10:37;;;;;;;1.37;1.37;;;20.80;99.90;;;;;;5128093;27;20194;-80
2023/07/26 12:13:08;;;;;;;1.30;1.20;;;21.00;99.90;;;;;;5127555;27;20205;-80
2023/07/26 12:15:49;;;;;;;1.83;1.13;;;21.10;99.90;;;;;;5127664;27;20202;-81
2023/07/26 12:18:16;;;;;;;1.47;1.37;;;20.90;99.90;;;;;;5127933;27;20197;-80
2023/07/26 12:20:55;;;;;;;1.57;1.47;;;21.00;99.90;;;;;;5127947;27;20296;-79
2023/07/26 12:23:22;;;;;;;1.53;1.27;;;21.30;99.60;;;;;;5128157;27;20557;-80
2023/07/26 12:25:56;;;;;;;3.40;1.70;;;21.60;99.90;;;;;;5128243;27;20335;-80
2023/07/26 12:28:23;;;;;;;3.75;1.10;;;21.70;99.70;;;;;;5127689;27;20209;-81
2023/07/26 12:30:55;;;;;;;1.47;1.37;;;21.90;99.30;;;;;;5108698;27;20214;-80
2023/07/26 12:33:22;;;;;;;1.53;1.00;;;21.40;98.70;;;;;;5119099;27;20233;-80
2023/07/26 12:35:53;;;;;;;1.57;1.40;;;21.30;98.80;;;;;;5127183;27;20753;-80
2023/07/26 12:38:21;;;;;;;1.83;1.40;;;21.60;99.20;;;;;;5127516;27;20621;-80
2023/07/26 12:40:50;;;;;;;1.70;1.40;;;21.80;99.80;;;;;;5127976;27;20205;-80
2023/07/26 12:43:27;;;;;;;1.30;1.30;;;21.70;98.80;;;;;;5127117;27;20221;-80
2023/07/26 12:45:54;;;;;;;1.40;1.30;;;21.20;98.70;;;;;;5145864;27;20713;-81
2023/07/26 12:48:22;;;;;;;1.13;1.10;;;20.80;99.10;;;;;;5148245;27;20295;-81
2023/07/26 12:50:51;;;;;;;1.70;1.13;;;20.60;99.70;;;;;;5112901;27;20208;-80